Latest Weather Observations for Young

IDN60801

Issued at 5:35 pm EDT Friday 31 October 2014 (issued every 30 minutes, with the page automatically refreshed every 10 minutes)

About weather observations | Map of weather stations | Latest weather observations for NSW | Other Formats
Station Details ID: 073138 Name: YOUNG AIRPORT Lat: -34.25 Lon: 148.25 Height: 379.6 m
Data from the previous 72 hours. | See also: Recent months at Young
Date/Time
EDT
Temp
°C
App
Temp
°C
Dew
Point
Rel
Hum
%
Delta-T
°C
Wind Press
QNH
hPa
Press
MSL
hPa
Rain
since 9 am
mm
Dir
 
Spd
km/h
Gust
km/h
Spd
kts
Gust
kts
31/05:30pm 32.2 25.9 -0.8 12 16.1 NNW 22 32 12 17 1006.2 1005.8 0.0
31/05:00pm 32.5 25.7 -1.7 11 16.5 NW 24 35 13 19 1006.2 1005.8 0.0
31/04:30pm 33.1 27.1 -1.3 11 16.7 NW 20 32 11 17 1006.7 1006.2 0.0
31/04:00pm 32.9 26.5 -1.4 11 16.7 N 22 35 12 19 1007.0 1006.6 0.0
31/03:30pm 32.5 26.5 -1.7 11 16.4 NNW 20 41 11 22 1007.5 1007.1 0.0
31/03:03pm 31.8 24.2 -2.3 11 16.1 NNW 28 46 15 25 1007.8 1007.4 0.0
31/03:00pm 31.9 25.1 -2.2 11 16.2 NW 24 46 13 25 1007.8 1007.4 0.0
31/02:30pm 33.1 26.0 -1.3 11 16.7 NNW 26 43 14 23 1008.2 1007.8 0.0
31/02:00pm 33.8 27.0 -2.0 10 17.3 NW 24 43 13 23 1008.6 1008.2 0.0
31/01:41pm 33.2 25.6 -2.5 10 17.0 NW 28 52 15 28 1009.0 1008.6 0.0
31/01:30pm 32.7 26.1 -0.4 12 16.3 NNW 24 43 13 23 1009.3 1008.9 0.0
31/01:27pm 33.1 25.4 -0.1 12 16.4 NNW 30 48 16 26 1009.4 1009.0 0.0
31/01:00pm 32.7 26.9 -0.4 12 16.3 NW 20 39 11 21 1009.9 1009.5 0.0
31/12:30pm 31.8 24.9 0.0 13 15.6 N 26 35 14 19 1010.5 1010.1 0.0
31/12:01pm 32.2 24.8 -0.8 12 16.1 N 28 46 15 25 1011.0 1010.6 0.0
31/12:00pm 32.0 24.7 0.2 13 15.7 N 28 43 15 23 1010.9 1010.5 0.0
31/11:30am 31.4 24.4 -0.3 13 15.5 NNW 26 41 14 22 1011.4 1011.1 0.0
31/11:00am 29.9 22.9 -0.5 14 14.7 NNW 26 35 14 19 1012.1 1011.7 0.0
31/10:30am 30.0 23.4 -0.4 14 14.7 N 24 33 13 18 1012.4 1012.0 0.0
31/10:00am 28.5 24.0 4.1 21 12.6 N 17 24 9 13 1012.7 1012.3 0.0
31/09:30am 26.4 22.8 4.8 25 11.2 N 13 17 7 9 1013.2 1012.8 0.0
31/09:00am 23.5 20.9 5.9 32 9.1 N 9 13 5 7 1013.5 1013.1 0.0
31/08:30am 20.1 19.2 6.1 40 7.1 CALM 0 0 0 0 1013.7 1013.4 0.0
31/08:29am 20.0 19.3 7.1 43 6.7 CALM 0 0 0 0 1013.7 1013.4 0.0
31/08:00am 15.0 13.4 7.8 62 3.7 SSE 6 7 3 4 1013.6 1013.3 0.0
31/07:30am 11.3 9.3 6.4 72 2.4 S 6 7 3 4 1013.5 1013.1 0.0
31/07:00am 7.6 5.4 5.2 85 1.1 S 6 7 3 4 1013.1 1012.7 0.0
31/06:30am 5.2 2.5 3.7 90 0.6 S 7 9 4 5 1012.6 1012.2 0.0
31/06:00am 4.7 1.9 2.9 88 0.8 SSW 7 9 4 5 1012.2 1011.8 0.0
31/05:30am 5.1 2.3 3.4 89 0.7 S 7 7 4 4 1012.0 1011.6 0.0
31/05:00am 4.3 1.4 2.5 88 0.7 S 7 9 4 5 1011.5 1011.2 0.0
31/04:30am 5.3 2.6 3.8 90 0.6 S 7 9 4 5 1011.6 1011.3 0.0
31/04:00am 5.9 3.2 3.9 87 0.9 SSW 7 9 4 5 1012.0 1011.6 0.0
31/03:30am 5.6 2.9 3.8 88 0.8 S 7 9 4 5 1012.5 1012.1 0.0
31/03:00am 6.4 3.4 4.2 86 1.0 S 9 9 5 5 1012.7 1012.3 0.0
31/02:30am 6.1 3.7 4.1 87 0.9 SSW 6 7 3 4 1012.8 1012.4 0.0
31/02:00am 6.6 4.1 4.6 87 0.9 S 7 9 4 5 1013.1 1012.7 0.0
31/01:30am 6.6 4.0 4.3 85 1.0 SSW 7 9 4 5 1013.4 1013.0 0.0
31/01:00am 6.9 4.0 4.4 84 1.1 SW 9 11 5 6 1013.7 1013.4 0.0
31/12:30am 7.0 4.4 4.3 83 1.2 SSW 7 9 4 5 1013.8 1013.5 0.0
31/12:00am 7.9 5.6 4.8 81 1.4 SSW 6 7 3 4 1013.9 1013.6 0.0
 
Date/Time
EDT
Temp
°C
App
Temp
°C
Dew
Point
Rel
Hum
%
Delta-T
°C
Wind Press
QNH
hPa
Press
MSL
hPa
Rain
since 9 am
mm
Dir
 
Spd
km/h
Gust
km/h
Spd
kts
Gust
kts
30/11:30pm 9.2 7.9 5.8 79 1.6 S 2 7 1 4 1014.0 1013.7 0.0
30/11:00pm 8.9 6.6 5.5 79 1.6 SSW 7 9 4 5 1013.9 1013.6 0.0
30/10:30pm 9.9 7.7 5.5 74 2.1 SSW 6 7 3 4 1013.9 1013.6 0.0
30/10:00pm 10.7 9.4 5.9 72 2.3 SSW 2 6 1 3 1013.8 1013.5 0.0
30/09:30pm 12.0 9.9 5.9 66 2.9 SSW 6 7 3 4 1013.7 1013.4 0.0
30/09:00pm 14.0 11.9 5.6 57 4.1 SSW 6 7 3 4 1013.6 1013.3 0.0
30/08:30pm 14.9 12.5 5.1 52 4.7 SSW 7 9 4 5 1013.4 1013.0 0.0
30/08:00pm 17.5 15.0 4.8 43 6.2 SSW 7 9 4 5 1013.1 1012.7 0.0
30/07:52pm 17.5 15.4 4.1 41 6.4 W 4 9 2 5 1013.0 1012.6 0.0
30/07:30pm 22.7 20.3 4.2 30 9.2 W 6 9 3 5 1012.9 1012.5 0.0
30/07:00pm 26.4 23.4 2.3 21 11.9 W 7 11 4 6 1012.6 1012.2 0.0
30/06:30pm 28.0 24.9 1.5 18 13.0 W 7 13 4 7 1012.4 1012.0 0.0
30/06:00pm 28.7 23.2 0.4 16 13.7 W 19 30 10 16 1012.4 1012.0 0.0
30/05:30pm 29.4 25.2 1.8 17 13.8 WNW 13 17 7 9 1012.3 1011.9 0.0
30/05:00pm 29.0 24.1 -0.2 15 14.1 SW 15 20 8 11 1012.4 1012.0 0.0
30/04:30pm 29.4 23.0 1.0 16 14.0 WSW 24 35 13 19 1012.5 1012.1 0.0
30/04:00pm 29.3 24.1 0.0 15 14.2 W 17 32 9 17 1012.5 1012.1 0.0
30/03:30pm 28.8 23.8 1.3 17 13.6 W 17 26 9 14 1012.7 1012.3 0.0
30/03:00pm 28.9 25.0 1.4 17 13.6 W 11 20 6 11 1013.1 1012.7 0.0
30/02:30pm 27.9 22.3 1.4 18 13.0 W 20 24 11 13 1013.7 1013.4 0.0
30/02:00pm 27.8 23.0 2.8 20 12.6 SW 17 22 9 12 1014.2 1013.9 0.0
30/01:30pm 27.7 23.3 4.7 23 12.0 SW 17 20 9 11 1014.5 1014.2 0.0
30/01:00pm 27.4 23.0 4.5 23 11.8 WSW 17 28 9 15 1015.0 1014.6 0.0
30/12:30pm 27.3 22.9 5.0 24 11.6 W 17 28 9 15 1015.2 1014.8 0.0
30/12:00pm 26.0 21.3 3.3 23 11.4 W 17 24 9 13 1015.5 1015.1 0.0
30/11:30am 25.4 20.5 2.2 22 11.4 WSW 17 32 9 17 1015.8 1015.4 0.0
30/11:00am 24.8 20.3 4.0 26 10.5 WNW 17 28 9 15 1015.9 1015.6 0.0
30/10:30am 24.3 20.6 4.6 28 10.0 W 13 22 7 12 1016.1 1015.8 0.0
30/10:00am 23.2 21.1 6.5 34 8.7 WNW 7 13 4 7 1016.3 1016.0 0.0
30/09:30am 21.0 18.4 6.2 38 7.6 N 9 11 5 6 1016.5 1016.2 0.0
30/09:00am 17.6 16.9 8.5 55 4.8 SSE 2 7 1 4 1016.6 1016.3 0.0
30/08:30am 13.0 11.4 7.9 71 2.6 S 6 7 3 4 1016.6 1016.3 0.0
30/08:00am 10.3 8.2 6.8 79 1.7 S 7 9 4 5 1016.4 1016.1 0.0
30/07:30am 7.0 4.8 5.2 88 0.8 S 6 7 3 4 1016.1 1015.8 0.0
30/07:00am 4.6 2.0 3.4 92 0.5 SSW 6 7 3 4 1016.1 1015.8 0.0
30/06:30am 2.8 -0.2 1.9 94 0.4 S 7 9 4 5 1015.9 1015.6 0.0
30/06:00am 2.4 -0.6 1.7 95 0.3 SSW 7 9 4 5 1015.8 1015.4 0.0
30/05:30am 2.3 -0.8 1.4 94 0.4 S 7 9 4 5 1015.6 1015.2 0.0
30/05:00am 2.4 -1.0 1.7 95 0.3 SW 9 11 5 6 1015.6 1015.2 0.0
30/04:30am 2.8 -0.6 1.8 93 0.4 S 9 9 5 5 1015.6 1015.2 0.0
30/04:00am 3.1 0.3 2.1 93 0.4 SSW 6 7 3 4 1015.6 1015.2 0.0
30/03:30am 3.2 0.2 1.9 91 0.5 S 7 9 4 5 1015.6 1015.2 0.0
30/03:00am 4.0 1.2 3.0 93 0.4 S 7 7 4 4 1015.7 1015.3 0.0
30/02:30am 4.4 1.7 2.9 90 0.6 SSW 6 9 3 5 1015.6 1015.2 0.0
30/02:00am 5.1 2.5 3.4 89 0.7 S 6 7 3 4 1015.6 1015.2 0.0
30/01:30am 5.7 4.3 3.5 86 0.9 CALM 0 6 0 3 1015.9 1015.6 0.0
30/01:00am 6.4 4.0 4.4 87 0.9 SSW 6 7 3 4 1016.1 1015.8 0.0
30/12:30am 6.3 3.9 4.1 86 1.0 SSW 6 6 3 3 1016.4 1016.1 0.0
30/12:00am 6.3 3.8 3.8 84 1.1 SSW 6 6 3 3 1016.5 1016.2 0.0
 
Date/Time
EDT
Temp
°C
App
Temp
°C
Dew
Point
Rel
Hum
%
Delta-T
°C
Wind Press
QNH
hPa
Press
MSL
hPa
Rain
since 9 am
mm
Dir
 
Spd
km/h
Gust
km/h
Spd
kts
Gust
kts
29/11:30pm 7.9 5.5 5.2 83 1.2 S 7 9 4 5 1016.6 1016.3 0.0
29/11:00pm 7.9 5.4 5.0 82 1.3 S 7 9 4 5 1016.6 1016.3 0.0
29/10:30pm 9.0 6.6 5.4 78 1.7 S 7 9 4 5 1016.4 1016.1 0.0
29/10:00pm 9.7 7.4 5.7 76 1.9 S 7 9 4 5 1016.4 1016.1 0.0
29/09:30pm 10.7 8.5 6.1 73 2.2 SW 7 9 4 5 1016.1 1015.8 0.0
29/09:00pm 11.5 9.3 6.0 69 2.6 SSW 7 9 4 5 1015.9 1015.6 0.0
29/08:30pm 12.9 10.7 6.0 63 3.3 S 7 9 4 5 1015.6 1015.2 0.0
29/08:00pm 13.8 11.6 5.4 57 4.0 WSW 6 9 3 5 1015.4 1015.0 0.0
29/07:54pm 15.0 12.7 5.5 53 4.6 WSW 7 9 4 5 1015.4 1015.0 0.0
29/07:30pm 20.1 18.1 4.6 36 7.7 W 4 7 2 4 1015.2 1014.8 0.0
29/07:00pm 23.1 20.5 4.1 29 9.5 W 7 11 4 6 1015.0 1014.6 0.0
29/06:30pm 24.7 21.7 3.9 26 10.5 W 9 13 5 7 1014.9 1014.5 0.0
29/06:00pm 25.4 21.7 4.5 26 10.7 W 13 22 7 12 1014.7 1014.3 0.0
29/05:30pm 25.4 21.9 3.4 24 11.0 W 11 19 6 10 1014.7 1014.3 0.0
29/05:00pm 25.7 22.0 4.2 25 10.9 WSW 13 24 7 13 1014.7 1014.3 0.0
29/04:30pm 26.1 21.3 4.6 25 11.0 WSW 19 24 10 13 1014.9 1014.5 0.0
29/04:00pm 26.0 21.3 5.0 26 10.9 WSW 19 28 10 15 1015.1 1014.7 0.0
29/03:30pm 25.3 22.0 4.4 26 10.6 WNW 11 20 6 11 1015.3 1014.9 0.0
29/03:00pm 25.4 21.2 5.6 28 10.3 WSW 17 24 9 13 1015.6 1015.2 0.0
29/02:30pm 24.2 19.7 4.0 27 10.1 SW 17 28 9 15 1016.0 1015.7 0.0
29/02:00pm 24.1 20.1 5.0 29 9.7 W 15 28 8 15 1016.4 1016.1 0.0
29/01:30pm 23.5 20.0 5.4 31 9.3 WSW 13 24 7 13 1016.8 1016.5 0.0
29/01:00pm 23.4 18.6 5.8 32 9.1 W 20 32 11 17 1017.0 1016.7 0.0
29/12:30pm 22.3 19.7 6.1 35 8.4 SW 9 17 5 9 1017.3 1017.0 0.0
29/12:00pm 22.0 18.4 6.7 37 7.9 SW 15 24 8 13 1017.9 1017.5 0.0
29/11:30am 20.5 16.1 6.4 40 7.2 WNW 19 22 10 12 1018.3 1018.0 0.0
29/11:00am 19.9 16.3 6.6 42 6.8 WSW 15 22 8 12 1018.7 1018.4 0.0
29/10:30am 19.7 15.7 6.8 43 6.6 WSW 17 28 9 15 1018.8 1018.5 0.0
29/10:00am 18.3 13.7 6.5 46 6.0 SSW 20 28 11 15 1019.1 1018.8 0.0
29/09:30am 18.2 15.0 6.7 47 5.8 S 13 24 7 13 1018.8 1018.5 0.0
29/09:00am 16.5 13.9 7.7 56 4.5 S 11 19 6 10 1018.7 1018.4 0.0
29/08:30am 13.4 11.9 7.0 65 3.2 SSE 4 7 2 4 1018.8 1018.5 0.0
29/08:00am 10.2 9.1 7.1 81 1.5 SSW 2 6 1 3 1018.7 1018.4 0.0
29/07:30am 7.3 6.2 5.3 87 0.9 CALM 0 0 0 0 1018.5 1018.2 0.0
29/07:00am 4.3 1.8 3.6 95 0.3 S 6 7 3 4 1018.1 1017.7 0.0
29/06:30am 2.0 -0.9 1.3 95 0.3 SSW 6 9 3 5 1017.9 1017.5 0.0
29/06:00am 1.8 -1.2 0.9 94 0.3 S 6 7 3 4 1017.6 1017.2 0.0
29/05:30am 1.7 -0.9 0.7 93 0.4 S 4 7 2 4 1017.1 1016.8 0.0
29/05:00am 2.5 0.8 1.9 96 0.2 CALM 0 0 0 0 1016.8 1016.5 0.0
29/04:30am 2.2 -0.7 1.3 94 0.4 S 6 9 3 5 1016.5 1016.2 0.0
29/04:00am 2.9 -0.1 2.2 95 0.3 SSW 7 9 4 5 1016.3 1016.0 0.0
29/03:30am 3.1 1.4 2.1 93 0.4 CALM 0 0 0 0 1016.1 1015.8 0.0
29/03:00am 3.5 1.9 2.6 94 0.4 CALM 0 0 0 0 1016.0 1015.7 0.0
29/02:30am 3.8 2.2 2.3 90 0.6 CALM 0 0 0 0 1015.9 1015.6 0.0
29/02:00am 4.5 3.0 3.0 90 0.6 CALM 0 0 0 0 1016.0 1015.7 0.0
29/01:30am 4.8 2.3 3.5 91 0.6 S 6 7 3 4 1016.0 1015.7 0.0
29/01:00am 5.3 3.1 3.3 87 0.8 S 4 7 2 4 1016.3 1016.0 0.0
29/12:30am 5.3 2.7 3.3 87 0.8 SSW 6 7 3 4 1016.4 1016.1 0.0
29/12:00am 6.2 4.8 3.7 84 1.1 CALM 0 0 0 0 1016.4 1016.1 0.0
 
Date/Time
EDT
Temp
°C
App
Temp
°C
Dew
Point
Rel
Hum
%
Delta-T
°C
Wind Press
QNH
hPa
Press
MSL
hPa
Rain
since 9 am
mm
Dir
 
Spd
km/h
Gust
km/h
Spd
kts
Gust
kts
28/11:30pm 7.0 4.6 4.3 83 1.2 SSW 6 7 3 4 1016.2 1015.9 0.0
28/11:00pm 8.5 6.9 4.7 77 1.7 SSW 2 6 1 3 1016.1 1015.8 0.0
28/10:30pm 10.2 9.1 5.0 70 2.4 CALM 0 6 0 3 1015.9 1015.6 0.0
28/10:00pm 11.7 8.9 5.3 65 3.0 SSW 9 11 5 6 1015.9 1015.6 0.0
28/09:30pm 14.2 11.1 5.6 56 4.2 SW 11 15 6 8 1015.7 1015.3 0.0
28/09:00pm 13.9 11.0 4.8 54 4.3 WSW 9 13 5 7 1015.5 1015.1 0.0
28/08:30pm 15.3 12.8 4.7 49 5.1 W 7 11 4 6 1015.0 1014.6 0.0
28/08:00pm 16.4 14.0 4.1 44 5.9 W 6 7 3 4 1014.5 1014.2 0.0
28/07:30pm 17.4 14.3 3.7 40 6.5 WSW 9 17 5 9 1014.2 1013.9 0.0
28/07:00pm 19.4 14.8 3.6 35 7.6 WSW 17 26 9 14 1013.9 1013.6 0.0
28/06:30pm 20.2 14.2 3.4 33 8.1 WSW 24 39 13 21 1013.7 1013.4 0.0
28/06:00pm 21.1 15.9 3.3 31 8.6 WSW 20 32 11 17 1013.5 1013.1 0.0

Other Formats:

Comma delimited format used in spreadsheet applications
http://www.bom.gov.au/fwo/IDN60801/IDN60801.94712.axf

JavaScript Object Notation format (JSON) in row-major order
http://www.bom.gov.au/fwo/IDN60801/IDN60801.94712.json